createdAt,value
2018-05-04T00:00:48.807Z,979.84
2018-05-04T00:01:49.048Z,979.82
2018-05-04T00:02:49.289Z,979.83
2018-05-04T00:03:49.529Z,979.88
2018-05-04T00:04:49.763Z,979.86
2018-05-04T00:05:50.011Z,979.86
2018-05-04T00:06:50.249Z,979.86
2018-05-04T00:07:50.489Z,979.83
2018-05-04T00:08:50.730Z,979.88
2018-05-04T00:09:50.968Z,979.83
2018-05-04T00:10:51.208Z,979.85
2018-05-04T00:11:51.445Z,979.93
2018-05-04T00:12:51.684Z,979.94
2018-05-04T00:13:51.920Z,979.93
2018-05-04T00:14:52.160Z,979.97
2018-05-04T00:15:52.398Z,979.99
2018-05-04T00:16:52.636Z,980.00
2018-05-04T00:17:52.873Z,980.03
2018-05-04T00:18:53.110Z,979.99
2018-05-04T00:19:53.349Z,980.00
2018-05-04T00:20:53.587Z,980.02
2018-05-04T00:21:53.821Z,980.02
2018-05-04T00:22:54.061Z,980.01
2018-05-04T00:23:54.303Z,979.99
2018-05-04T00:24:54.535Z,980.03
2018-05-04T00:25:54.785Z,980.03
2018-05-04T00:26:55.013Z,980.02
2018-05-04T00:27:55.252Z,980.00
2018-05-04T00:28:55.490Z,980.02
2018-05-04T00:29:55.727Z,979.99
2018-05-04T00:30:55.966Z,980.04
2018-05-04T00:31:56.201Z,980.04
2018-05-04T00:32:56.436Z,980.02
2018-05-04T00:33:56.675Z,980.04
2018-05-04T00:34:56.912Z,979.98
2018-05-04T00:35:57.150Z,980.01
2018-05-04T00:36:57.384Z,980.03
2018-05-04T00:37:57.622Z,980.03
2018-05-04T00:38:57.859Z,979.97
2018-05-04T00:39:58.097Z,979.97
2018-05-04T00:40:58.334Z,979.99
2018-05-04T00:41:58.571Z,980.00
2018-05-04T00:42:58.807Z,980.03
2018-05-04T00:43:59.042Z,980.01
2018-05-04T00:44:59.280Z,980.00
2018-05-04T00:45:59.523Z,979.96
2018-05-04T00:46:59.754Z,979.95
2018-05-04T00:47:59.990Z,979.95
2018-05-04T00:49:00.231Z,979.97
2018-05-04T00:50:00.468Z,979.98
2018-05-04T00:51:00.705Z,979.96
2018-05-04T00:52:00.943Z,979.98
2018-05-04T00:53:01.183Z,979.98
2018-05-04T00:54:01.419Z,980.03
2018-05-04T00:55:01.658Z,980.01
2018-05-04T00:56:01.896Z,979.93
2018-05-04T00:57:02.131Z,979.96
2018-05-04T00:58:02.371Z,979.95
2018-05-04T00:59:02.604Z,979.95
2018-05-04T01:00:02.845Z,979.97
2018-05-04T01:01:03.081Z,979.95
2018-05-04T01:02:03.315Z,979.99
2018-05-04T01:03:03.552Z,979.97
2018-05-04T01:04:03.791Z,979.99
2018-05-04T01:05:04.035Z,979.97
2018-05-04T01:06:04.268Z,979.95
2018-05-04T01:07:04.506Z,979.95
2018-05-04T01:08:04.744Z,979.93
2018-05-04T01:09:04.984Z,979.93
2018-05-04T01:10:05.220Z,979.92
2018-05-04T01:11:05.455Z,979.94
2018-05-04T01:12:05.693Z,979.95
2018-05-04T01:13:05.932Z,979.92
2018-05-04T01:14:06.169Z,979.95
2018-05-04T01:15:06.409Z,979.95
2018-05-04T01:16:06.646Z,979.90
2018-05-04T01:17:06.887Z,979.90
2018-05-04T01:18:07.122Z,979.90
2018-05-04T01:19:07.354Z,979.87
2018-05-04T01:20:07.594Z,979.83
2018-05-04T01:21:07.830Z,979.83
2018-05-04T01:22:08.071Z,979.78
2018-05-04T01:23:08.312Z,979.77
2018-05-04T01:24:08.543Z,979.78
2018-05-04T01:25:08.779Z,979.78
2018-05-04T01:26:09.018Z,979.78
2018-05-04T01:27:09.260Z,979.78
2018-05-04T01:28:09.489Z,979.78
2018-05-04T01:29:09.725Z,979.82
2018-05-04T01:30:09.961Z,979.71
2018-05-04T01:31:10.202Z,979.69
2018-05-04T01:32:10.435Z,979.70
2018-05-04T01:33:10.672Z,979.66
2018-05-04T01:34:10.909Z,979.72
2018-05-04T01:35:11.148Z,979.73
2018-05-04T01:36:11.385Z,979.66
2018-05-04T01:37:11.620Z,979.72
2018-05-04T01:38:11.859Z,979.74
2018-05-04T01:39:12.097Z,979.70
2018-05-04T01:40:12.332Z,979.75
2018-05-04T01:41:12.569Z,979.74
2018-05-04T01:42:12.807Z,979.75
2018-05-04T01:43:13.045Z,979.73
2018-05-04T01:44:13.278Z,979.69
2018-05-04T01:45:13.516Z,979.68
2018-05-04T01:46:13.752Z,979.68
2018-05-04T01:47:13.990Z,979.64
2018-05-04T01:48:14.234Z,979.67
2018-05-04T01:49:14.472Z,979.64
2018-05-04T01:50:14.711Z,979.63
2018-05-04T01:51:14.945Z,979.66
2018-05-04T01:52:15.180Z,979.64
2018-05-04T01:53:15.421Z,979.61
2018-05-04T01:54:15.657Z,979.59
2018-05-04T01:55:15.895Z,979.62
2018-05-04T01:56:16.135Z,979.57
2018-05-04T01:57:16.370Z,979.61
2018-05-04T01:58:16.606Z,979.63
2018-05-04T01:59:16.843Z,979.59
2018-05-04T02:00:17.077Z,979.58
2018-05-04T02:01:17.314Z,979.61
2018-05-04T02:02:17.545Z,979.55
2018-05-04T02:03:17.790Z,979.59
2018-05-04T02:04:18.033Z,979.53
2018-05-04T02:05:18.265Z,979.54
2018-05-04T02:06:18.501Z,979.52
2018-05-04T02:07:18.740Z,979.51
2018-05-04T02:08:18.977Z,979.57
2018-05-04T02:09:19.216Z,979.53
2018-05-04T02:10:19.452Z,979.51
2018-05-04T02:11:19.690Z,979.55
2018-05-04T02:12:19.926Z,979.60
2018-05-04T02:13:20.160Z,979.62
2018-05-04T02:14:20.394Z,979.68
2018-05-04T02:15:20.635Z,979.68
2018-05-04T02:16:20.881Z,979.68
2018-05-04T02:17:21.109Z,979.70
2018-05-04T02:18:21.346Z,979.71
2018-05-04T02:19:21.581Z,979.72
2018-05-04T02:20:21.820Z,979.73
2018-05-04T02:21:22.056Z,979.72
2018-05-04T02:22:22.294Z,979.71
2018-05-04T02:23:22.604Z,979.74
2018-05-04T02:24:22.768Z,979.72
2018-05-04T02:25:23.019Z,979.72
2018-05-04T02:26:23.244Z,979.74
2018-05-04T02:27:23.480Z,979.71
2018-05-04T02:28:23.718Z,979.73
2018-05-04T02:29:23.954Z,979.75
2018-05-04T02:30:24.191Z,979.80
2018-05-04T02:31:24.430Z,979.80
2018-05-04T02:32:24.667Z,979.76
2018-05-04T02:33:24.902Z,979.79
2018-05-04T02:34:25.141Z,979.82
2018-05-04T02:35:25.378Z,979.80
2018-05-04T02:36:25.616Z,979.77
2018-05-04T02:37:25.846Z,979.77
2018-05-04T02:38:26.083Z,979.78
2018-05-04T02:39:26.324Z,979.77
2018-05-04T02:40:26.556Z,979.72
2018-05-04T02:41:26.793Z,979.73
2018-05-04T02:42:27.030Z,979.73
2018-05-04T02:43:27.268Z,979.74
2018-05-04T02:44:27.505Z,979.75
2018-05-04T02:45:27.742Z,979.79
2018-05-04T02:46:27.980Z,979.75
2018-05-04T02:47:28.220Z,979.77
2018-05-04T02:48:28.455Z,979.82
2018-05-04T02:49:28.686Z,979.84
2018-05-04T02:50:28.923Z,979.87
2018-05-04T02:51:29.165Z,979.84
2018-05-04T02:52:29.401Z,979.77
2018-05-04T02:53:29.637Z,979.85
2018-05-04T02:54:29.875Z,979.82
2018-05-04T02:55:30.154Z,979.83
2018-05-04T02:56:30.349Z,979.86
2018-05-04T02:57:30.587Z,979.83
2018-05-04T02:58:30.832Z,979.81
2018-05-04T02:59:31.059Z,979.82
2018-05-04T03:00:31.301Z,979.85
2018-05-04T03:01:31.537Z,979.90
2018-05-04T03:02:31.773Z,979.89
2018-05-04T03:03:32.011Z,979.90
2018-05-04T03:04:32.278Z,979.90
2018-05-04T03:05:32.485Z,979.91
2018-05-04T03:06:32.722Z,979.89
2018-05-04T03:07:32.959Z,979.93
2018-05-04T03:08:33.197Z,979.94
2018-05-04T03:09:33.435Z,979.95
2018-05-04T03:10:33.681Z,979.95
2018-05-04T03:11:33.910Z,979.97
2018-05-04T03:12:34.145Z,979.94
2018-05-04T03:13:34.384Z,979.97
2018-05-04T03:14:34.621Z,979.93
2018-05-04T03:15:34.862Z,979.91
2018-05-04T03:16:35.093Z,979.89
2018-05-04T03:17:35.329Z,979.91
2018-05-04T03:18:35.567Z,979.94
2018-05-04T03:19:35.803Z,979.92
2018-05-04T03:20:36.041Z,979.94
2018-05-04T03:21:36.277Z,979.97
2018-05-04T03:22:36.514Z,979.96
2018-05-04T03:23:36.751Z,980.01
2018-05-04T03:24:36.988Z,980.04
2018-05-04T03:25:37.225Z,980.00
2018-05-04T03:26:37.464Z,980.04
2018-05-04T03:27:37.701Z,980.01
2018-05-04T03:28:37.939Z,979.95
2018-05-04T03:29:38.179Z,979.95
2018-05-04T03:30:38.414Z,979.95
2018-05-04T03:31:38.657Z,979.93
2018-05-04T03:32:38.894Z,979.93
2018-05-04T03:33:39.137Z,979.89
2018-05-04T03:34:39.369Z,979.91
2018-05-04T03:35:39.606Z,979.96
2018-05-04T03:36:39.842Z,979.99
2018-05-04T03:37:40.078Z,980.02
2018-05-04T03:38:40.313Z,980.06
2018-05-04T03:39:40.551Z,980.05
2018-05-04T03:40:40.800Z,980.11
2018-05-04T03:41:41.024Z,980.08
2018-05-04T03:42:41.266Z,980.11
2018-05-04T03:43:41.502Z,980.06
2018-05-04T03:44:41.741Z,980.00
2018-05-04T03:45:41.979Z,980.01
2018-05-04T03:46:42.217Z,979.95
2018-05-04T03:47:42.456Z,980.00
2018-05-04T03:48:42.693Z,979.89
2018-05-04T03:49:42.930Z,979.95
2018-05-04T03:50:43.170Z,979.97
2018-05-04T03:51:43.408Z,979.97
2018-05-04T03:52:43.642Z,979.97
2018-05-04T03:53:43.879Z,980.04
2018-05-04T03:54:44.118Z,980.05
2018-05-04T03:55:44.356Z,980.07
2018-05-04T03:56:44.595Z,980.09
2018-05-04T03:57:44.832Z,980.09
2018-05-04T03:58:45.070Z,980.09
2018-05-04T03:59:45.307Z,980.13
2018-05-04T04:00:45.580Z,980.12
2018-05-04T04:01:45.819Z,980.13
2018-05-04T04:02:46.058Z,980.15
2018-05-04T04:03:46.296Z,980.13
2018-05-04T04:04:46.534Z,980.23
2018-05-04T04:05:46.773Z,980.28
2018-05-04T04:06:47.010Z,980.27
2018-05-04T04:07:47.245Z,980.26
2018-05-04T04:08:47.485Z,980.23
2018-05-04T04:09:47.719Z,980.26
2018-05-04T04:10:47.957Z,980.24
2018-05-04T04:11:48.192Z,980.20
2018-05-04T04:12:48.429Z,980.27
2018-05-04T04:13:48.667Z,980.20
2018-05-04T04:14:48.920Z,980.20
2018-05-04T04:15:49.142Z,980.20
2018-05-04T04:16:49.378Z,980.21
2018-05-04T04:17:49.617Z,980.21
2018-05-04T04:18:49.857Z,980.20
2018-05-04T04:19:50.098Z,980.18
2018-05-04T04:20:50.324Z,980.21
2018-05-04T04:21:50.558Z,980.18
2018-05-04T04:22:50.800Z,980.21
2018-05-04T04:23:51.034Z,980.15
2018-05-04T04:24:51.273Z,980.16
2018-05-04T04:25:51.505Z,980.15
2018-05-04T04:26:51.742Z,980.20
2018-05-04T04:27:51.980Z,980.26
2018-05-04T04:28:52.219Z,980.22
2018-05-04T04:29:52.456Z,980.25
2018-05-04T04:30:52.695Z,980.25
2018-05-04T04:31:52.932Z,980.29
2018-05-04T04:32:53.169Z,980.34
2018-05-04T04:33:53.408Z,980.36
2018-05-04T04:34:53.645Z,980.40
2018-05-04T04:35:53.882Z,980.39
2018-05-04T04:36:54.120Z,980.44
2018-05-04T04:37:54.358Z,980.43
2018-05-04T04:38:54.675Z,980.45
2018-05-04T04:39:54.833Z,980.46
2018-05-04T04:40:55.075Z,980.45
2018-05-04T04:41:55.311Z,980.51
2018-05-04T04:42:55.545Z,980.52
2018-05-04T04:43:55.786Z,980.57
2018-05-04T04:44:56.020Z,980.55
2018-05-04T04:45:56.258Z,980.59
2018-05-04T04:46:56.494Z,980.59
2018-05-04T04:47:56.735Z,980.60
2018-05-04T04:48:56.971Z,980.61
2018-05-04T04:49:57.209Z,980.61
2018-05-04T04:50:57.452Z,980.60
2018-05-04T04:51:57.687Z,980.65
2018-05-04T04:52:57.925Z,980.68
2018-05-04T04:53:58.167Z,980.65
2018-05-04T04:54:58.402Z,980.70
2018-05-04T04:55:58.646Z,980.70
2018-05-04T04:56:58.876Z,980.69
2018-05-04T04:57:59.117Z,980.73
2018-05-04T04:58:59.353Z,980.72
2018-05-04T04:59:59.589Z,980.70
2018-05-04T05:00:59.826Z,980.69
2018-05-04T05:02:00.068Z,980.69
2018-05-04T05:03:00.304Z,980.71
2018-05-04T05:04:00.540Z,980.72
2018-05-04T05:05:00.779Z,980.72
2018-05-04T05:06:01.020Z,980.68
2018-05-04T05:07:01.256Z,980.66
2018-05-04T05:08:01.494Z,980.67
2018-05-04T05:09:01.730Z,980.67
2018-05-04T05:10:01.969Z,980.70
2018-05-04T05:11:02.324Z,980.75
2018-05-04T05:12:02.565Z,980.78
2018-05-04T05:13:02.803Z,980.78
2018-05-04T05:14:03.065Z,980.78
2018-05-04T05:15:03.304Z,980.78
2018-05-04T05:16:03.544Z,980.80
2018-05-04T05:17:03.783Z,980.80
2018-05-04T05:18:04.020Z,980.81
2018-05-04T05:19:04.263Z,980.74
2018-05-04T05:20:04.517Z,980.78
2018-05-04T05:21:04.735Z,980.77
2018-05-04T05:22:05.014Z,980.77
2018-05-04T05:23:05.210Z,980.77
2018-05-04T05:24:05.447Z,980.76
2018-05-04T05:25:05.687Z,980.68
2018-05-04T05:26:05.926Z,980.79
2018-05-04T05:27:06.167Z,980.79
2018-05-04T05:28:06.406Z,980.83
2018-05-04T05:29:06.652Z,980.81
2018-05-04T05:30:06.883Z,980.87
2018-05-04T05:31:07.127Z,980.82
2018-05-04T05:32:07.361Z,980.77
2018-05-04T05:33:07.599Z,980.79
2018-05-04T05:34:07.839Z,980.87
2018-05-04T05:35:08.070Z,980.81
2018-05-04T05:36:08.309Z,980.79
2018-05-04T05:37:08.548Z,980.82
2018-05-04T05:38:08.786Z,980.77
2018-05-04T05:39:09.031Z,980.85
2018-05-04T05:40:09.263Z,980.85
2018-05-04T05:41:09.501Z,980.89
2018-05-04T05:42:09.742Z,980.89
2018-05-04T05:43:09.978Z,980.91
2018-05-04T05:44:10.218Z,980.89
2018-05-04T05:45:10.463Z,980.94
2018-05-04T05:46:10.696Z,980.90
2018-05-04T05:47:10.936Z,980.90
2018-05-04T05:48:11.184Z,980.95
2018-05-04T05:49:11.418Z,980.92
2018-05-04T05:50:11.659Z,980.93
2018-05-04T05:51:11.897Z,980.92
2018-05-04T05:52:12.145Z,980.92
2018-05-04T05:53:12.370Z,980.92
2018-05-04T05:54:12.609Z,980.86
2018-05-04T05:55:12.840Z,980.86
2018-05-04T05:56:13.092Z,980.87
2018-05-04T05:57:13.314Z,980.84
2018-05-04T05:58:13.570Z,980.89
2018-05-04T05:59:13.792Z,980.84
2018-05-04T06:00:14.044Z,980.87
2018-05-04T06:01:14.282Z,980.93
2018-05-04T06:02:14.499Z,980.93
2018-05-04T06:03:14.736Z,980.93
2018-05-04T06:04:14.985Z,980.91
2018-05-04T06:05:15.236Z,980.86
2018-05-04T06:06:15.455Z,980.96
2018-05-04T06:07:15.718Z,980.93
2018-05-04T06:08:15.917Z,980.92
2018-05-04T06:09:16.168Z,981.00
2018-05-04T06:10:16.398Z,980.96
2018-05-04T06:11:16.640Z,980.92
2018-05-04T06:12:16.881Z,980.88
2018-05-04T06:13:17.114Z,980.92
2018-05-04T06:14:17.344Z,980.87
2018-05-04T06:15:17.601Z,980.95
2018-05-04T06:16:17.848Z,980.93
2018-05-04T06:17:18.058Z,980.77
2018-05-04T06:18:18.288Z,980.84
2018-05-04T06:19:18.538Z,980.91
2018-05-04T06:20:18.773Z,981.02
2018-05-04T06:21:19.032Z,980.95
2018-05-04T06:22:19.241Z,980.96
2018-05-04T06:23:19.480Z,980.97
2018-05-04T06:24:19.698Z,980.95
2018-05-04T06:25:19.957Z,980.92
2018-05-04T06:26:20.163Z,980.90
2018-05-04T06:27:20.422Z,980.82
2018-05-04T06:28:20.641Z,980.94
2018-05-04T06:29:20.881Z,980.96
2018-05-04T06:30:21.115Z,980.97
2018-05-04T06:31:21.357Z,981.06
2018-05-04T06:32:21.598Z,981.08
2018-05-04T06:33:21.834Z,981.00
2018-05-04T06:34:22.055Z,981.14
2018-05-04T06:35:22.297Z,981.12
2018-05-04T06:36:22.539Z,981.17
2018-05-04T06:37:22.791Z,981.14
2018-05-04T06:38:23.003Z,981.16
2018-05-04T06:39:23.261Z,981.15
2018-05-04T06:40:23.474Z,981.16
2018-05-04T06:41:23.749Z,981.14
2018-05-04T06:42:23.975Z,981.15
2018-05-04T06:43:24.226Z,981.19
2018-05-04T06:44:24.439Z,981.14
2018-05-04T06:45:24.663Z,981.17
2018-05-04T06:46:24.914Z,981.12
2018-05-04T06:47:25.138Z,981.15
2018-05-04T06:48:25.380Z,981.13
2018-05-04T06:49:25.605Z,981.18
2018-05-04T06:50:25.857Z,981.08
2018-05-04T06:51:26.119Z,981.19
2018-05-04T06:52:26.336Z,981.20
2018-05-04T06:53:26.578Z,981.20
2018-05-04T06:54:26.803Z,981.21
2018-05-04T06:55:27.073Z,981.18
2018-05-04T06:56:27.270Z,981.17
2018-05-04T06:57:27.532Z,981.17
2018-05-04T06:58:27.747Z,981.15
2018-05-04T06:59:28.004Z,981.16
2018-05-04T07:00:28.248Z,981.17
2018-05-04T07:01:28.500Z,981.12
2018-05-04T07:02:28.700Z,981.09
2018-05-04T07:03:28.981Z,981.17
2018-05-04T07:04:29.194Z,981.20
2018-05-04T07:05:29.441Z,981.21
2018-05-04T07:06:29.690Z,981.17
2018-05-04T07:07:29.941Z,981.28
2018-05-04T07:08:30.175Z,981.28
2018-05-04T07:09:30.407Z,981.29
2018-05-04T07:10:30.715Z,981.39
2018-05-04T07:11:30.906Z,981.35
2018-05-04T07:12:31.141Z,981.38
2018-05-04T07:13:31.387Z,981.40
2018-05-04T07:14:31.606Z,981.38
2018-05-04T07:15:31.864Z,981.35
2018-05-04T07:16:32.124Z,981.27
2018-05-04T07:17:32.369Z,981.25
2018-05-04T07:18:32.583Z,981.29
2018-05-04T07:19:32.838Z,981.30
2018-05-04T07:20:33.075Z,981.40
2018-05-04T07:21:33.316Z,981.38
2018-05-04T07:22:33.562Z,981.31
2018-05-04T07:23:33.833Z,981.29
2018-05-04T07:24:34.057Z,981.32
2018-05-04T07:25:34.307Z,981.37
2018-05-04T07:26:34.545Z,981.28
2018-05-04T07:27:34.776Z,981.34
2018-05-04T07:28:35.080Z,981.31
2018-05-04T07:29:35.277Z,981.30
2018-05-04T07:30:35.508Z,981.29
2018-05-04T07:31:35.778Z,981.34
2018-05-04T07:32:36.017Z,981.32
2018-05-04T07:33:36.256Z,981.37
2018-05-04T07:34:36.506Z,981.45
2018-05-04T07:35:36.770Z,981.42
2018-05-04T07:36:36.998Z,981.40
2018-05-04T07:37:37.220Z,981.38
2018-05-04T07:38:37.476Z,981.37
2018-05-04T07:39:37.721Z,981.46
2018-05-04T07:40:38.013Z,981.39
2018-05-04T07:41:38.234Z,981.50
2018-05-04T07:42:38.470Z,981.37
2018-05-04T07:43:38.709Z,981.52
2018-05-04T07:44:38.983Z,981.53
2018-05-04T07:45:39.205Z,981.46
2018-05-04T07:46:39.471Z,981.41
2018-05-04T07:47:39.715Z,981.56
2018-05-04T07:48:40.033Z,981.47
2018-05-04T07:49:40.193Z,981.45
2018-05-04T07:50:40.427Z,981.52
2018-05-04T07:51:40.651Z,981.57
2018-05-04T07:52:40.908Z,981.51
2018-05-04T07:53:41.186Z,981.57
2018-05-04T07:54:41.410Z,981.53
2018-05-04T07:55:41.662Z,981.56
2018-05-04T07:56:41.898Z,981.45
2018-05-04T07:57:42.142Z,981.52
2018-05-04T07:58:42.387Z,981.64
2018-05-04T07:59:42.623Z,981.64
2018-05-04T08:00:42.861Z,981.63
2018-05-04T08:01:43.108Z,981.69
2018-05-04T08:02:43.356Z,981.71
2018-05-04T08:03:43.593Z,981.68
2018-05-04T08:04:43.884Z,981.65
2018-05-04T08:05:44.120Z,981.67
2018-05-04T08:06:44.375Z,981.67
2018-05-04T08:07:44.628Z,981.66
2018-05-04T08:08:54.550Z,981.60
2018-05-04T08:09:45.189Z,981.59
2018-05-04T08:10:45.411Z,981.68
2018-05-04T08:11:45.651Z,981.73
2018-05-04T08:12:45.910Z,981.74
2018-05-04T08:13:46.140Z,981.76
2018-05-04T08:14:46.381Z,981.46
2018-05-04T08:15:46.630Z,981.63
2018-05-04T08:16:46.871Z,981.82
2018-05-04T08:17:47.119Z,981.83
2018-05-04T08:18:47.366Z,981.81
2018-05-04T08:19:47.619Z,981.63
2018-05-04T08:20:47.867Z,981.83
2018-05-04T08:21:48.116Z,981.78
2018-05-04T08:22:48.375Z,981.79
2018-05-04T08:23:48.618Z,981.85
2018-05-04T08:24:48.863Z,981.81
2018-05-04T08:25:49.110Z,981.77
2018-05-04T08:26:49.367Z,981.75
2018-05-04T08:27:49.610Z,981.97
2018-05-04T08:28:49.870Z,981.89
2018-05-04T08:29:50.098Z,981.94
2018-05-04T08:30:50.341Z,982.04
2018-05-04T08:31:50.590Z,982.00
2018-05-04T08:32:50.839Z,981.99
2018-05-04T08:33:51.079Z,981.84
2018-05-04T08:34:51.342Z,981.76
2018-05-04T08:35:51.584Z,981.91
2018-05-04T08:36:51.832Z,981.94
2018-05-04T08:37:52.080Z,981.89
2018-05-04T08:38:52.334Z,981.84
2018-05-04T08:39:52.583Z,981.91
2018-05-04T08:40:52.930Z,981.77
2018-05-04T08:41:53.100Z,981.79
2018-05-04T08:42:53.331Z,981.95
2018-05-04T08:43:53.569Z,981.77
2018-05-04T08:44:53.819Z,981.89
2018-05-04T08:45:54.072Z,981.86
2018-05-04T08:46:54.380Z,982.02
2018-05-04T08:47:54.557Z,982.02
2018-05-04T08:48:54.836Z,982.02
2018-05-04T08:49:55.046Z,982.12
2018-05-04T08:50:55.307Z,982.21
2018-05-04T08:51:55.545Z,982.18
2018-05-04T08:52:55.796Z,982.41
2018-05-04T08:53:56.042Z,982.38
2018-05-04T08:54:56.286Z,982.56
2018-05-04T08:55:56.541Z,982.36
2018-05-04T08:56:56.797Z,982.28
2018-05-04T08:57:57.036Z,981.97
2018-05-04T08:58:57.288Z,981.90
2018-05-04T08:59:57.539Z,981.96
2018-05-04T09:00:57.785Z,981.91
2018-05-04T09:01:58.063Z,981.99
2018-05-04T09:02:58.291Z,981.97
2018-05-04T09:03:58.563Z,981.83
2018-05-04T09:04:58.787Z,981.69
2018-05-04T09:05:59.048Z,981.93
2018-05-04T09:06:59.280Z,981.88
2018-05-04T09:07:59.533Z,981.82
2018-05-04T09:08:59.784Z,981.96
2018-05-04T09:10:00.041Z,981.94
2018-05-04T09:11:00.282Z,982.07
2018-05-04T09:12:00.525Z,981.91
2018-05-04T09:13:00.771Z,982.02
2018-05-04T09:14:01.021Z,982.07
2018-05-04T09:15:01.273Z,981.96
2018-05-04T09:16:01.517Z,981.97
2018-05-04T09:17:01.757Z,981.95
2018-05-04T09:18:02.024Z,982.04
2018-05-04T09:19:02.254Z,982.07
2018-05-04T09:20:02.504Z,982.08
2018-05-04T09:21:02.745Z,982.05
2018-05-04T09:22:02.992Z,982.23
2018-05-04T09:23:03.227Z,982.19
2018-05-04T09:24:03.471Z,982.20
2018-05-04T09:25:03.711Z,982.30
2018-05-04T09:26:03.970Z,982.36
2018-05-04T09:27:04.229Z,982.34
2018-05-04T09:28:04.474Z,982.42
2018-05-04T09:29:04.731Z,982.66
2018-05-04T09:30:04.996Z,982.66
2018-05-04T09:31:05.258Z,982.75
2018-05-04T09:32:05.447Z,982.75
2018-05-04T09:33:05.697Z,982.63
2018-05-04T09:34:05.940Z,982.70
2018-05-04T09:35:06.187Z,982.65
2018-05-04T09:36:06.448Z,982.59
2018-05-04T09:37:06.683Z,982.46
2018-05-04T09:38:06.936Z,982.30
2018-05-04T09:39:07.186Z,982.34
2018-05-04T09:40:07.436Z,982.24
2018-05-04T09:41:07.688Z,982.28
2018-05-04T09:42:07.944Z,982.35
2018-05-04T09:43:08.194Z,982.66
2018-05-04T09:44:08.444Z,982.75
2018-05-04T09:45:08.693Z,982.40
2018-05-04T09:46:08.942Z,982.31
2018-05-04T09:47:09.194Z,982.39
2018-05-04T09:48:09.446Z,982.19
2018-05-04T09:49:09.779Z,982.59
2018-05-04T09:50:09.950Z,983.13
2018-05-04T09:51:10.201Z,983.52
2018-05-04T09:52:10.463Z,983.53
2018-05-04T09:53:10.701Z,983.47
2018-05-04T09:54:11.028Z,983.45
2018-05-04T09:55:11.201Z,983.61
2018-05-04T09:56:11.458Z,983.51
2018-05-04T09:57:11.699Z,983.54
2018-05-04T09:58:11.962Z,983.64
2018-05-04T09:59:12.223Z,983.57
2018-05-04T10:00:12.464Z,983.66
2018-05-04T10:01:12.717Z,983.59
2018-05-04T10:02:12.960Z,983.40
2018-05-04T10:03:13.228Z,983.69
2018-05-04T10:04:13.464Z,983.65
2018-05-04T10:05:13.717Z,983.75
2018-05-04T10:06:13.970Z,983.78
2018-05-04T10:07:14.225Z,983.36
2018-05-04T10:08:14.478Z,983.33
2018-05-04T10:09:14.737Z,983.54
2018-05-04T10:10:14.986Z,983.56
2018-05-04T10:11:15.237Z,983.45
2018-05-04T10:12:15.489Z,983.32
2018-05-04T10:13:15.742Z,983.28
2018-05-04T10:14:15.996Z,983.34
2018-05-04T10:15:16.247Z,983.34
2018-05-04T10:16:16.492Z,983.23
2018-05-04T10:17:16.749Z,983.32
2018-05-04T10:18:16.993Z,983.11
2018-05-04T10:19:17.248Z,983.18
2018-05-04T10:20:17.498Z,983.15
2018-05-04T10:21:17.751Z,983.14
2018-05-04T10:22:18.000Z,983.12
2018-05-04T10:23:18.254Z,983.13
2018-05-04T10:24:18.506Z,983.02
2018-05-04T10:25:18.766Z,983.08
2018-05-04T10:26:19.014Z,983.06
2018-05-04T10:27:19.262Z,983.04
2018-05-04T10:28:19.515Z,983.06
2018-05-04T10:29:19.765Z,983.05
2018-05-04T10:30:20.010Z,983.05
2018-05-04T10:31:20.354Z,983.02
2018-05-04T10:32:20.518Z,982.82
2018-05-04T10:33:20.770Z,982.91
2018-05-04T10:34:21.025Z,982.87
2018-05-04T10:35:21.270Z,982.87
2018-05-04T10:36:21.527Z,982.84
2018-05-04T10:37:21.775Z,982.84
2018-05-04T10:38:22.080Z,982.75
2018-05-04T10:39:22.281Z,982.73
2018-05-04T10:40:22.531Z,982.53
2018-05-04T10:41:22.785Z,982.33
2018-05-04T10:42:23.035Z,982.40
2018-05-04T10:43:23.292Z,982.39
2018-05-04T10:44:23.540Z,982.35
2018-05-04T10:45:23.793Z,982.31
2018-05-04T10:46:24.046Z,982.32
2018-05-04T10:47:24.298Z,982.33
2018-05-04T10:48:24.553Z,982.28
2018-05-04T10:49:24.805Z,982.33
2018-05-04T10:50:25.063Z,982.30
2018-05-04T10:51:25.311Z,982.35
2018-05-04T10:52:25.567Z,982.35
2018-05-04T10:53:25.820Z,982.33
2018-05-04T10:54:26.075Z,982.26
2018-05-04T10:55:26.327Z,982.33
2018-05-04T10:56:26.582Z,982.42
2018-05-04T10:57:26.835Z,982.53
2018-05-04T10:58:27.089Z,982.58
2018-05-04T10:59:27.340Z,982.78
2018-05-04T11:00:27.584Z,982.85
2018-05-04T11:01:27.839Z,982.82
2018-05-04T11:02:28.094Z,982.75
2018-05-04T11:03:28.342Z,982.65
2018-05-04T11:04:28.598Z,982.67
2018-05-04T11:05:28.933Z,982.59
2018-05-04T11:06:29.092Z,982.63
2018-05-04T11:07:29.380Z,982.54
2018-05-04T11:08:29.589Z,982.52
2018-05-04T11:09:29.843Z,982.75
2018-05-04T11:10:30.095Z,982.79
2018-05-04T11:11:30.349Z,982.83
2018-05-04T11:12:30.626Z,982.71
2018-05-04T11:13:30.875Z,982.67
2018-05-04T11:14:31.139Z,982.66
2018-05-04T11:15:31.395Z,982.64
2018-05-04T11:16:31.650Z,982.60
2018-05-04T11:17:31.929Z,982.67
2018-05-04T11:18:32.153Z,982.72
2018-05-04T11:19:32.448Z,982.71
2018-05-04T11:20:32.665Z,982.85
2018-05-04T11:21:32.919Z,982.89
2018-05-04T11:22:33.166Z,982.93
2018-05-04T11:23:33.497Z,982.89
2018-05-04T11:24:33.745Z,982.86
2018-05-04T11:25:34.016Z,982.92
2018-05-04T11:26:34.288Z,982.83
2018-05-04T11:27:34.552Z,982.78
2018-05-04T11:28:34.860Z,982.73
2018-05-04T11:29:35.820Z,982.71
2018-05-04T11:30:35.371Z,982.68
2018-05-04T11:31:35.638Z,982.71
2018-05-04T11:32:35.888Z,982.67
2018-05-04T11:33:36.169Z,982.68
2018-05-04T11:34:36.416Z,982.77
2018-05-04T11:35:36.689Z,982.87
2018-05-04T11:36:36.931Z,982.97
2018-05-04T11:37:37.179Z,982.94
2018-05-04T11:38:37.429Z,982.95
2018-05-04T11:39:37.688Z,982.92
2018-05-04T11:40:37.984Z,982.94
2018-05-04T11:41:38.249Z,982.72
2018-05-04T11:42:38.506Z,982.58
2018-05-04T11:43:38.757Z,982.51
2018-05-04T11:44:39.008Z,982.58
2018-05-04T11:45:39.271Z,982.49
2018-05-04T11:46:39.534Z,982.57
2018-05-04T11:47:39.797Z,982.47
2018-05-04T11:48:40.035Z,982.52
2018-05-04T11:49:40.304Z,982.58
2018-05-04T11:50:40.547Z,982.48
2018-05-04T11:51:40.809Z,982.51
2018-05-04T11:52:41.049Z,982.59
2018-05-04T11:53:41.310Z,982.61
2018-05-04T11:54:41.555Z,982.66
2018-05-04T11:55:41.809Z,982.65
2018-05-04T11:56:42.072Z,982.62
2018-05-04T11:57:42.317Z,982.62
2018-05-04T11:58:42.562Z,982.62
2018-05-04T11:59:42.812Z,982.69
2018-05-04T12:00:43.069Z,982.62
2018-05-04T12:01:43.315Z,982.70
2018-05-04T12:02:43.554Z,982.70
2018-05-04T12:03:43.822Z,982.82
2018-05-04T12:04:44.093Z,982.76
2018-05-04T12:05:44.328Z,982.75
2018-05-04T12:06:44.577Z,982.75
2018-05-04T12:07:44.821Z,982.71
2018-05-04T12:08:45.085Z,982.78
2018-05-04T12:09:45.317Z,982.76
2018-05-04T12:10:45.651Z,982.72
2018-05-04T12:11:45.815Z,982.75
2018-05-04T12:12:46.074Z,982.64
2018-05-04T12:13:46.326Z,982.74
2018-05-04T12:14:46.593Z,982.62
2018-05-04T12:15:46.918Z,982.63
2018-05-04T12:16:47.092Z,982.76
2018-05-04T12:17:47.351Z,982.69
2018-05-04T12:18:47.597Z,982.71
2018-05-04T12:19:47.852Z,982.61
2018-05-04T12:20:48.107Z,982.72
2018-05-04T12:21:48.362Z,982.63
2018-05-04T12:22:48.670Z,982.64
2018-05-04T12:23:48.871Z,982.63
2018-05-04T12:24:49.123Z,982.72
2018-05-04T12:25:49.377Z,982.67
2018-05-04T12:26:49.632Z,982.65
2018-05-04T12:27:49.886Z,982.54
2018-05-04T12:28:50.141Z,982.62
2018-05-04T12:29:50.437Z,982.50
2018-05-04T12:30:50.693Z,982.53
2018-05-04T12:31:50.959Z,982.52